createdAt,value
2019-01-02T00:00:50.059Z,74.28
2019-01-02T00:03:19.400Z,74.00
2019-01-02T00:05:48.921Z,74.00
2019-01-02T00:08:18.244Z,74.01
2019-01-02T00:10:47.423Z,73.44
2019-01-02T00:13:16.991Z,73.57
2019-01-02T00:15:46.334Z,72.65
2019-01-02T00:18:15.691Z,72.65
2019-01-02T00:20:45.393Z,72.04
2019-01-02T00:23:14.917Z,72.04
2019-01-02T00:25:44.124Z,72.56
2019-01-02T00:28:14.204Z,72.56
2019-01-02T00:30:44.024Z,71.64
2019-01-02T00:33:13.339Z,72.09
2019-01-02T00:35:42.619Z,72.09
2019-01-02T00:38:11.824Z,72.32
2019-01-02T00:40:41.046Z,71.67
2019-01-02T00:43:10.223Z,72.09
2019-01-02T00:45:39.762Z,71.45
2019-01-02T00:48:08.954Z,71.09
2019-01-02T00:50:38.531Z,72.07
2019-01-02T00:53:08.361Z,71.94
2019-01-02T00:55:37.878Z,70.93
2019-01-02T00:58:07.074Z,70.93
2019-01-02T01:00:36.957Z,71.29
2019-01-02T01:03:06.363Z,71.42
2019-01-02T01:05:36.137Z,71.49
2019-01-02T01:08:05.363Z,70.80
2019-01-02T01:10:34.543Z,71.44
2019-01-02T01:13:05.219Z,71.29
2019-01-02T01:15:34.874Z,71.52
2019-01-02T01:18:04.505Z,71.52
2019-01-02T01:20:35.913Z,71.24
2019-01-02T01:23:05.255Z,71.38
2019-01-02T01:25:34.955Z,71.71
2019-01-02T01:28:05.861Z,71.55
2019-01-02T01:30:35.107Z,71.80
2019-01-02T01:33:04.852Z,71.98
2019-01-02T01:35:35.626Z,71.71
2019-01-02T01:38:04.849Z,71.71
2019-01-02T01:40:34.044Z,71.48
2019-01-02T01:43:03.923Z,70.96
2019-01-02T01:45:33.605Z,70.96
2019-01-02T01:48:02.844Z,71.03
2019-01-02T01:50:33.976Z,71.27
2019-01-02T01:53:03.749Z,71.01
2019-01-02T01:55:33.049Z,71.16
2019-01-02T01:58:02.859Z,71.16
2019-01-02T02:00:32.511Z,71.65
2019-01-02T02:03:03.579Z,71.65
2019-01-02T02:05:33.108Z,70.89
2019-01-02T02:08:02.291Z,71.09
2019-01-02T02:10:34.356Z,71.16
2019-01-02T02:13:04.795Z,71.02
2019-01-02T02:15:34.457Z,71.04
2019-01-02T02:18:03.844Z,71.26
2019-01-02T02:20:33.040Z,71.13
2019-01-02T02:23:02.370Z,70.77
2019-01-02T02:25:32.135Z,71.34
2019-01-02T02:28:01.759Z,71.29
2019-01-02T02:30:30.958Z,71.26
2019-01-02T02:33:00.230Z,71.47
2019-01-02T02:35:30.657Z,71.42
2019-01-02T02:38:00.203Z,71.46
2019-01-02T02:40:29.511Z,72.01
2019-01-02T02:42:59.197Z,72.62
2019-01-02T02:45:28.888Z,72.93
2019-01-02T02:47:58.754Z,73.57
2019-01-02T02:50:28.451Z,75.08
2019-01-02T02:52:58.031Z,76.92
2019-01-02T02:55:28.721Z,77.29
2019-01-02T02:57:58.022Z,77.92
2019-01-02T03:00:27.226Z,77.51
2019-01-02T03:02:56.539Z,77.37
2019-01-02T03:05:25.766Z,77.37
2019-01-02T03:07:55.359Z,76.63
2019-01-02T03:10:24.859Z,76.25
2019-01-02T03:12:54.943Z,76.25
2019-01-02T03:15:24.578Z,76.33
2019-01-02T03:17:53.991Z,76.82
2019-01-02T03:20:23.511Z,75.56
2019-01-02T03:22:53.901Z,75.41
2019-01-02T03:25:26.539Z,75.97
2019-01-02T03:27:56.202Z,76.56
2019-01-02T03:30:26.018Z,76.50
2019-01-02T03:32:57.172Z,77.02
2019-01-02T03:35:28.354Z,77.83
2019-01-02T03:37:57.577Z,77.69
2019-01-02T03:40:27.699Z,78.10
2019-01-02T03:42:58.221Z,78.19
2019-01-02T03:45:28.405Z,78.53
2019-01-02T03:47:57.808Z,78.85
2019-01-02T03:50:27.012Z,78.85
2019-01-02T03:52:56.253Z,79.27
2019-01-02T03:55:25.462Z,78.67
2019-01-02T03:57:54.752Z,78.57
2019-01-02T04:00:24.986Z,78.20
2019-01-02T04:02:54.100Z,78.20
2019-01-02T04:05:25.198Z,78.63
2019-01-02T04:07:59.406Z,78.31
2019-01-02T04:10:28.536Z,78.61
2019-01-02T04:12:57.711Z,79.14
2019-01-02T04:15:26.909Z,79.15
2019-01-02T04:17:56.543Z,79.73
2019-01-02T04:20:25.668Z,79.73
2019-01-02T04:22:54.986Z,79.91
2019-01-02T04:25:24.112Z,79.74
2019-01-02T04:27:53.226Z,79.86
2019-01-02T04:30:22.726Z,79.86
2019-01-02T04:32:51.850Z,80.13
2019-01-02T04:35:20.961Z,80.10
2019-01-02T04:37:50.211Z,80.00
2019-01-02T04:40:19.299Z,79.66
2019-01-02T04:42:48.449Z,79.72
2019-01-02T04:45:17.636Z,79.72
2019-01-02T04:47:46.744Z,79.83
2019-01-02T04:50:16.206Z,79.77
2019-01-02T04:52:45.322Z,79.77
2019-01-02T04:55:14.470Z,79.15
2019-01-02T04:57:43.980Z,79.34
2019-01-02T05:00:15.511Z,79.49
2019-01-02T05:02:45.828Z,79.49
2019-01-02T05:05:14.995Z,78.99
2019-01-02T05:07:44.522Z,78.99
2019-01-02T05:10:14.613Z,78.84
2019-01-02T05:12:43.787Z,79.24
2019-01-02T05:15:12.916Z,79.24
2019-01-02T05:17:42.020Z,79.10
2019-01-02T05:20:13.688Z,79.15
2019-01-02T05:22:42.881Z,78.96
2019-01-02T05:25:12.011Z,78.90
2019-01-02T05:27:41.784Z,78.90
2019-01-02T05:30:14.148Z,79.07
2019-01-02T05:32:43.376Z,79.06
2019-01-02T05:35:12.499Z,79.06
2019-01-02T05:37:41.628Z,78.97
2019-01-02T05:40:18.955Z,79.02
2019-01-02T05:42:48.067Z,78.96
2019-01-02T05:45:17.175Z,78.96
2019-01-02T05:47:47.795Z,79.06
2019-01-02T05:50:19.982Z,78.91
2019-01-02T05:52:49.110Z,79.32
2019-01-02T05:55:18.218Z,79.28
2019-01-02T05:57:47.352Z,79.36
2019-01-02T06:00:17.248Z,82.01
2019-01-02T06:02:46.382Z,82.01
2019-01-02T06:05:15.520Z,84.84
2019-01-02T06:07:44.654Z,84.38
2019-01-02T06:10:15.445Z,81.19
2019-01-02T06:12:44.721Z,83.68
2019-01-02T06:15:15.966Z,84.29
2019-01-02T06:17:45.507Z,84.29
2019-01-02T06:20:16.707Z,83.51
2019-01-02T06:22:45.826Z,84.08
2019-01-02T06:25:16.313Z,84.08
2019-01-02T06:28:05.412Z,84.47
2019-01-02T06:30:57.954Z,84.83
2019-01-02T06:33:30.392Z,85.37
2019-01-02T06:36:04.736Z,85.37
2019-01-02T06:38:36.961Z,84.81
2019-01-02T06:41:06.106Z,84.69
2019-01-02T06:43:35.641Z,84.47
2019-01-02T06:46:04.896Z,84.47
2019-01-02T06:48:34.076Z,84.45
2019-01-02T06:51:03.378Z,84.17
2019-01-02T06:53:32.864Z,83.55
2019-01-02T06:56:01.977Z,83.84
2019-01-02T06:58:31.151Z,83.86
2019-01-02T07:01:00.792Z,83.86
2019-01-02T07:03:29.948Z,83.85
2019-01-02T07:05:59.010Z,83.76
2019-01-02T07:08:28.629Z,84.08
2019-01-02T07:10:58.862Z,84.08
2019-01-02T07:13:28.044Z,84.02
2019-01-02T07:15:57.733Z,84.01
2019-01-02T07:21:13.550Z,84.10
2019-01-02T07:23:42.683Z,84.59
2019-01-02T07:26:11.857Z,84.60
2019-01-02T07:28:41.009Z,84.41
2019-01-02T07:31:10.136Z,84.50
2019-01-02T07:33:44.947Z,84.50
2019-01-02T07:36:46.471Z,84.47
2019-01-02T07:39:31.590Z,84.43
2019-01-02T07:42:39.055Z,84.31
2019-01-02T07:45:36.133Z,84.43
2019-01-02T07:48:24.322Z,84.43
2019-01-02T07:51:24.193Z,85.43
2019-01-02T07:54:21.519Z,85.43
2019-01-02T07:57:02.780Z,87.41
2019-01-02T07:59:49.860Z,87.68
2019-01-02T08:02:39.979Z,87.68
2019-01-02T08:05:24.369Z,87.75
2019-01-02T08:08:09.867Z,87.68
2019-01-02T08:10:58.451Z,87.29
2019-01-02T08:13:51.816Z,87.12
2019-01-02T08:16:45.706Z,86.94
2019-01-02T08:19:45.409Z,87.32
2019-01-02T08:22:44.067Z,87.39
2019-01-02T08:25:39.429Z,87.56
2019-01-02T08:28:39.697Z,87.23
2019-01-02T08:31:23.575Z,87.23
2019-01-02T08:34:15.645Z,87.01
2019-01-02T08:37:02.837Z,86.84
2019-01-02T08:40:00.289Z,86.87
2019-01-02T08:43:05.332Z,86.89
2019-01-02T08:45:53.928Z,86.89
2019-01-02T08:48:47.587Z,86.32
2019-01-02T08:51:42.442Z,86.09
2019-01-02T08:54:40.067Z,85.69
2019-01-02T08:57:21.297Z,85.74
2019-01-02T09:00:06.593Z,85.74
2019-01-02T09:03:07.885Z,84.90
2019-01-02T09:05:54.260Z,85.14
2019-01-02T09:08:56.641Z,85.08
2019-01-02T09:11:41.844Z,85.08
2019-01-02T09:14:52.796Z,85.05
2019-01-02T09:17:47.995Z,84.37
2019-01-02T09:20:42.297Z,84.37
2019-01-02T09:23:35.978Z,83.87
2019-01-02T09:26:29.982Z,83.93
2019-01-02T09:29:12.433Z,83.93
2019-01-02T09:32:11.111Z,83.58
2019-01-02T09:34:54.837Z,83.58
2019-01-02T09:37:53.814Z,83.08
2019-01-02T09:40:42.223Z,83.08
2019-01-02T09:43:42.567Z,82.11
2019-01-02T09:46:45.496Z,82.11
2019-01-02T09:49:38.532Z,81.19
2019-01-02T09:52:38.709Z,81.56
2019-01-02T09:55:41.504Z,81.94
2019-01-02T09:58:27.471Z,81.04
2019-01-02T10:01:09.999Z,81.79
2019-01-02T10:04:09.654Z,81.79
2019-01-02T10:06:55.092Z,81.58
2019-01-02T10:09:56.000Z,81.58
2019-01-02T10:12:51.263Z,80.48
2019-01-02T10:15:58.680Z,80.41
2019-01-02T10:19:00.086Z,79.83
2019-01-02T10:21:45.323Z,79.96
2019-01-02T10:24:47.005Z,79.70
2019-01-02T10:27:44.713Z,79.12
2019-01-02T10:30:28.554Z,79.12
2019-01-02T10:33:21.746Z,79.01
2019-01-02T10:35:59.752Z,78.64
2019-01-02T10:38:43.189Z,78.64
2019-01-02T10:41:31.668Z,77.66
2019-01-02T10:44:22.964Z,78.24
2019-01-02T10:47:20.228Z,77.73
2019-01-02T10:50:20.320Z,77.15
2019-01-02T10:53:12.997Z,76.98
2019-01-02T10:56:02.275Z,76.03
2019-01-02T10:58:55.446Z,76.55
2019-01-02T11:01:50.090Z,76.55
2019-01-02T11:04:45.682Z,75.84
2019-01-02T11:07:41.322Z,75.84
2019-01-02T11:10:28.222Z,76.68
2019-01-02T11:13:11.732Z,76.34
2019-01-02T11:15:52.136Z,76.34
2019-01-02T11:18:39.285Z,76.39
2019-01-02T11:21:25.157Z,76.39
2019-01-02T11:24:25.589Z,76.39
2019-01-02T11:27:28.330Z,76.05
2019-01-02T11:30:25.734Z,75.85
2019-01-02T11:33:34.097Z,75.85
2019-01-02T11:36:16.173Z,76.17
2019-01-02T11:38:58.146Z,74.80
2019-01-02T11:41:38.588Z,74.16
2019-01-02T11:44:24.809Z,72.53
2019-01-02T11:46:54.153Z,72.07
2019-01-02T11:49:23.411Z,73.56
2019-01-02T11:51:52.815Z,72.37
2019-01-02T11:54:40.896Z,72.37
2019-01-02T11:57:10.075Z,72.08
2019-01-02T11:59:39.321Z,72.08
2019-01-02T12:02:08.548Z,72.99
2019-01-02T12:04:37.649Z,72.05
2019-01-02T12:07:07.244Z,71.83
2019-01-02T12:09:37.719Z,71.83
2019-01-02T12:12:06.963Z,70.52
2019-01-02T12:14:36.590Z,69.66
2019-01-02T12:17:05.732Z,65.91
2019-01-02T12:19:52.633Z,66.07
2019-01-02T12:22:21.870Z,65.98
2019-01-02T12:24:51.037Z,63.42
2019-01-02T12:27:20.332Z,63.42
2019-01-02T12:29:49.656Z,62.29
2019-01-02T12:32:18.811Z,61.42
2019-01-02T12:34:48.578Z,61.55
2019-01-02T12:37:17.713Z,62.32
2019-01-02T12:42:34.101Z,63.06
2019-01-02T12:45:03.522Z,63.12
2019-01-02T12:47:32.662Z,63.12
2019-01-02T12:50:01.752Z,63.34
2019-01-02T12:52:32.138Z,63.34
2019-01-02T12:55:01.450Z,64.79
2019-01-02T12:57:30.579Z,63.54
2019-01-02T12:59:59.817Z,63.54
2019-01-02T13:03:04.074Z,62.77
2019-01-02T13:06:03.063Z,62.72
2019-01-02T13:09:10.325Z,62.83
2019-01-02T13:12:03.588Z,61.10
2019-01-02T13:15:07.712Z,60.84
2019-01-02T13:17:53.911Z,61.49
2019-01-02T13:20:43.625Z,61.51
2019-01-02T13:23:23.256Z,60.64
2019-01-02T13:25:57.690Z,60.03
2019-01-02T13:28:56.352Z,60.85
2019-01-02T13:31:53.063Z,60.21
2019-01-02T13:34:43.882Z,60.22
2019-01-02T13:37:25.768Z,60.06
2019-01-02T13:40:17.447Z,59.88
2019-01-02T13:43:01.189Z,59.88
2019-01-02T13:45:37.450Z,57.89
2019-01-02T13:48:32.265Z,56.38
2019-01-02T13:51:08.452Z,58.34
2019-01-02T13:53:37.600Z,58.34
2019-01-02T13:56:09.028Z,58.61
2019-01-02T13:58:40.879Z,58.75
2019-01-02T14:01:10.381Z,58.75
2019-01-02T14:03:39.561Z,59.32
2019-01-02T14:06:08.706Z,59.62
2019-01-02T14:08:37.841Z,59.62
2019-01-02T14:11:10.098Z,60.37
2019-01-02T14:13:40.942Z,60.58
2019-01-02T14:16:10.158Z,61.22
2019-01-02T14:18:39.267Z,61.07
2019-01-02T14:21:09.166Z,61.31
2019-01-02T14:23:38.597Z,61.31
2019-01-02T14:26:07.709Z,61.32
2019-01-02T14:28:36.850Z,61.40
2019-01-02T14:31:05.989Z,62.10
2019-01-02T14:33:35.089Z,62.47
2019-01-02T14:36:04.299Z,62.47
2019-01-02T14:38:33.431Z,61.91
2019-01-02T14:41:05.757Z,62.31
2019-01-02T14:43:34.941Z,61.30
2019-01-02T14:46:05.187Z,61.81
2019-01-02T14:48:34.319Z,62.01
2019-01-02T14:51:05.126Z,61.62
2019-01-02T14:53:34.265Z,61.62
2019-01-02T14:56:03.416Z,61.19
2019-01-02T14:58:32.564Z,61.81
2019-01-02T15:01:01.676Z,61.44
2019-01-02T15:03:31.034Z,62.42
2019-01-02T15:08:57.883Z,63.08
2019-01-02T15:11:27.009Z,63.58
2019-01-02T15:13:56.140Z,64.20
2019-01-02T15:16:25.864Z,63.51
2019-01-02T15:18:55.061Z,63.46
2019-01-02T15:24:29.456Z,64.40
2019-01-02T15:26:58.626Z,64.40
2019-01-02T15:29:27.870Z,64.42
2019-01-02T15:31:59.676Z,65.03
2019-01-02T15:34:34.717Z,64.99
2019-01-02T15:37:04.073Z,64.99
2019-01-02T15:39:33.231Z,65.25
2019-01-02T15:42:02.318Z,65.25
2019-01-02T15:44:31.425Z,65.18
2019-01-02T15:47:08.425Z,65.28
2019-01-02T15:49:34.700Z,65.56
2019-01-02T15:52:03.831Z,65.47
2019-01-02T15:54:33.354Z,65.68
2019-01-02T15:57:02.487Z,66.05
2019-01-02T15:59:33.115Z,65.95
2019-01-02T16:02:02.219Z,65.95
2019-01-02T16:04:49.842Z,65.95
2019-01-02T16:07:18.956Z,66.58
2019-01-02T16:12:34.752Z,67.31
2019-01-02T16:17:40.261Z,64.56
2019-01-02T16:20:11.246Z,64.56
2019-01-02T16:22:42.428Z,64.46
2019-01-02T16:25:30.145Z,64.49
2019-01-02T16:27:59.460Z,64.98
2019-01-02T16:30:29.921Z,64.52
2019-01-02T16:32:59.108Z,64.69
2019-01-02T16:35:28.367Z,64.69
2019-01-02T16:37:57.704Z,64.97
2019-01-02T16:40:26.859Z,65.00
2019-01-02T16:42:55.958Z,64.66
2019-01-02T16:45:43.675Z,64.66
2019-01-02T16:48:13.355Z,64.21
2019-01-02T16:50:42.605Z,64.43
2019-01-02T16:53:11.806Z,64.18
2019-01-02T16:55:41.447Z,64.02
2019-01-02T16:58:13.635Z,63.94
2019-01-02T17:00:42.811Z,63.94
2019-01-02T17:03:12.032Z,64.73
2019-01-02T17:05:41.159Z,64.73
2019-01-02T17:08:10.334Z,64.71
2019-01-02T17:10:39.507Z,64.71
2019-01-02T17:13:08.731Z,64.99
2019-01-02T17:15:37.853Z,65.16
2019-01-02T17:18:07.399Z,65.50
2019-01-02T17:20:54.562Z,65.30
2019-01-02T17:23:23.752Z,65.81
2019-01-02T17:25:52.858Z,65.81
2019-01-02T17:28:22.152Z,65.79
2019-01-02T17:30:51.665Z,65.91
2019-01-02T17:33:20.803Z,66.22
2019-01-02T17:35:49.918Z,66.08
2019-01-02T17:38:19.274Z,66.17
2019-01-02T17:40:48.441Z,66.20
2019-01-02T17:43:18.090Z,66.31
2019-01-02T17:45:47.324Z,66.44
2019-01-02T17:48:17.394Z,66.89
2019-01-02T17:50:47.011Z,67.11
2019-01-02T17:53:16.146Z,67.22
2019-01-02T17:55:45.315Z,67.08
2019-01-02T17:58:14.450Z,67.37
2019-01-02T18:00:43.596Z,67.50
2019-01-02T18:03:12.759Z,67.69
2019-01-02T18:05:42.751Z,67.64
2019-01-02T18:08:12.040Z,67.95
2019-01-02T18:10:41.242Z,68.17
2019-01-02T18:13:10.461Z,68.17
2019-01-02T18:15:39.643Z,68.78
2019-01-02T18:18:08.778Z,69.03
2019-01-02T18:20:39.120Z,68.84
2019-01-02T18:23:08.354Z,69.17
2019-01-02T18:25:37.649Z,69.09
2019-01-02T18:28:07.199Z,69.33
2019-01-02T18:30:36.325Z,69.33
2019-01-02T18:33:05.519Z,69.67
2019-01-02T18:35:35.449Z,69.67
2019-01-02T18:38:04.998Z,69.59
2019-01-02T18:40:34.127Z,69.65
2019-01-02T18:43:03.252Z,69.75
2019-01-02T18:45:32.463Z,70.08
2019-01-02T18:48:01.577Z,70.08
2019-01-02T18:50:30.731Z,69.92
2019-01-02T18:52:59.909Z,69.79
2019-01-02T18:55:47.261Z,69.69
2019-01-02T18:58:16.946Z,69.67
2019-01-02T19:00:46.077Z,69.56
2019-01-02T19:03:15.559Z,69.56
2019-01-02T19:05:45.355Z,69.98
2019-01-02T19:08:14.537Z,70.10
2019-01-02T19:10:43.783Z,70.18
2019-01-02T19:13:12.906Z,70.18
2019-01-02T19:15:44.134Z,70.53
2019-01-02T19:18:13.646Z,70.53
2019-01-02T19:20:42.774Z,70.33
2019-01-02T19:23:11.898Z,70.33
2019-01-02T19:25:41.513Z,70.23
2019-01-02T19:28:10.651Z,70.23
2019-01-02T19:30:39.836Z,70.24
2019-01-02T19:33:08.972Z,70.30
2019-01-02T19:35:38.687Z,70.28
2019-01-02T19:38:08.492Z,69.72
2019-01-02T19:40:37.650Z,69.70
2019-01-02T19:43:06.771Z,69.30
2019-01-02T19:45:35.928Z,69.55
2019-01-02T19:48:05.391Z,69.55
2019-01-02T19:50:35.067Z,69.07
2019-01-02T19:53:04.196Z,69.16
2019-01-02T19:55:33.347Z,69.05
2019-01-02T19:58:02.484Z,68.93
2019-01-02T20:00:32.213Z,69.11
2019-01-02T20:03:01.343Z,68.65
2019-01-02T20:05:30.475Z,68.97
2019-01-02T20:07:59.795Z,68.34
2019-01-02T20:10:28.975Z,68.14
2019-01-02T20:12:58.154Z,68.15
2019-01-02T20:15:27.722Z,67.93
2019-01-02T20:17:56.874Z,68.14
2019-01-02T20:20:26.542Z,68.14
2019-01-02T20:22:55.808Z,68.15
2019-01-02T20:25:24.898Z,67.53
2019-01-02T20:27:54.043Z,68.06
2019-01-02T20:30:23.152Z,67.16
2019-01-02T20:32:52.258Z,67.16
2019-01-02T20:35:21.479Z,67.87
2019-01-02T20:37:50.793Z,67.32
2019-01-02T20:40:20.323Z,67.70
2019-01-02T20:42:49.525Z,67.70
2019-01-02T20:45:18.655Z,67.29
2019-01-02T20:47:48.146Z,67.05
2019-01-02T20:50:17.938Z,67.05
2019-01-02T20:52:47.100Z,67.29
2019-01-02T20:55:16.230Z,68.08
2019-01-02T20:57:45.592Z,67.94
2019-01-02T21:00:14.747Z,67.94
2019-01-02T21:02:43.879Z,68.15
2019-01-02T21:05:13.037Z,68.15
2019-01-02T21:07:42.173Z,68.52
2019-01-02T21:10:11.597Z,68.20
2019-01-02T21:12:41.003Z,68.78
2019-01-02T21:15:11.338Z,68.55
2019-01-02T21:17:41.760Z,69.25
2019-01-02T21:20:11.469Z,69.25
2019-01-02T21:22:40.847Z,69.44
2019-01-02T21:25:10.182Z,69.33
2019-01-02T21:27:39.322Z,70.51
2019-01-02T21:30:10.251Z,70.51
2019-01-02T21:32:39.410Z,69.87
2019-01-02T21:35:08.731Z,70.49
2019-01-02T21:37:38.276Z,69.95
2019-01-02T21:40:08.383Z,69.99
2019-01-02T21:42:37.604Z,69.82
2019-01-02T21:45:06.770Z,69.82
2019-01-02T21:47:35.975Z,70.09
2019-01-02T21:50:05.391Z,70.72
2019-01-02T21:52:34.624Z,70.72
2019-01-02T21:55:03.868Z,70.76
2019-01-02T21:57:33.481Z,71.37
2019-01-02T22:00:02.755Z,71.85
2019-01-02T22:02:32.301Z,71.85
2019-01-02T22:05:01.411Z,71.86
2019-01-02T22:07:34.618Z,71.93
2019-01-02T22:10:09.413Z,71.93
2019-01-02T22:12:44.760Z,72.51
2019-01-02T22:15:15.437Z,72.82
2019-01-02T22:17:44.876Z,72.91
2019-01-02T22:20:14.065Z,73.48
2019-01-02T22:22:43.292Z,73.48
2019-01-02T22:25:12.412Z,73.50
2019-01-02T22:27:41.876Z,74.01
2019-01-02T22:30:12.137Z,73.92
2019-01-02T22:32:41.289Z,73.83
2019-01-02T22:35:10.956Z,74.51
2019-01-02T22:37:40.721Z,74.17
2019-01-02T22:40:09.888Z,74.64
2019-01-02T22:42:40.491Z,74.67
2019-01-02T22:45:10.585Z,74.48
2019-01-02T22:47:39.897Z,75.26
2019-01-02T22:50:10.098Z,75.26
2019-01-02T22:52:39.224Z,75.10
2019-01-02T22:55:08.554Z,74.66
2019-01-02T22:57:37.690Z,74.66
2019-01-02T23:00:18.545Z,73.56
2019-01-02T23:02:55.130Z,73.75
2019-01-02T23:05:43.638Z,73.13
2019-01-02T23:08:29.317Z,73.99
2019-01-02T23:11:15.008Z,74.29
2019-01-02T23:14:03.085Z,73.37
2019-01-02T23:16:51.660Z,74.81
2019-01-02T23:19:37.970Z,74.55
2019-01-02T23:22:26.645Z,74.55
2019-01-02T23:25:14.721Z,73.81
2019-01-02T23:28:02.757Z,73.37
2019-01-02T23:30:49.983Z,73.88
2019-01-02T23:33:38.433Z,74.10
2019-01-02T23:36:25.462Z,74.10
2019-01-02T23:39:13.958Z,73.49
2019-01-02T23:42:02.107Z,72.35
2019-01-02T23:44:50.788Z,72.35
2019-01-02T23:47:40.093Z,73.10
2019-01-02T23:50:28.908Z,72.77
2019-01-02T23:53:16.949Z,72.88
2019-01-02T23:56:05.404Z,72.93
2019-01-02T23:58:53.483Z,72.93
